sensor_id;sensor_type;location;lat;lon;timestamp;temperature;humidity
947;DHT22;460;48.734;9.152;2023-06-26T00:01:06;20.60;57.00
947;DHT22;460;48.734;9.152;2023-06-26T00:03:33;20.60;57.20
947;DHT22;460;48.734;9.152;2023-06-26T00:06:00;20.70;56.70
947;DHT22;460;48.734;9.152;2023-06-26T00:08:28;20.60;56.60
947;DHT22;460;48.734;9.152;2023-06-26T00:10:55;20.50;56.50
947;DHT22;460;48.734;9.152;2023-06-26T00:13:23;20.60;57.00
947;DHT22;460;48.734;9.152;2023-06-26T00:15:50;20.60;57.10
947;DHT22;460;48.734;9.152;2023-06-26T00:18:17;20.60;56.40
947;DHT22;460;48.734;9.152;2023-06-26T00:20:44;20.60;56.80
947;DHT22;460;48.734;9.152;2023-06-26T00:23:11;20.50;57.50
947;DHT22;460;48.734;9.152;2023-06-26T00:25:43;20.50;57.40
947;DHT22;460;48.734;9.152;2023-06-26T00:28:10;20.40;57.30
947;DHT22;460;48.734;9.152;2023-06-26T00:30:37;20.40;57.60
947;DHT22;460;48.734;9.152;2023-06-26T00:33:04;20.50;57.60
947;DHT22;460;48.734;9.152;2023-06-26T00:35:30;20.50;57.60
947;DHT22;460;48.734;9.152;2023-06-26T00:37:57;20.40;57.70
947;DHT22;460;48.734;9.152;2023-06-26T00:40:24;20.40;57.20
947;DHT22;460;48.734;9.152;2023-06-26T00:42:53;20.40;57.60
947;DHT22;460;48.734;9.152;2023-06-26T00:45:20;20.50;58.10
947;DHT22;460;48.734;9.152;2023-06-26T00:47:47;20.40;58.20
947;DHT22;460;48.734;9.152;2023-06-26T00:50:14;20.40;58.80
947;DHT22;460;48.734;9.152;2023-06-26T00:52:41;20.40;57.80
947;DHT22;460;48.734;9.152;2023-06-26T00:55:09;20.40;57.80
947;DHT22;460;48.734;9.152;2023-06-26T00:57:36;20.50;57.40
947;DHT22;460;48.734;9.152;2023-06-26T01:00:06;20.50;57.60
947;DHT22;460;48.734;9.152;2023-06-26T01:02:33;20.50;57.60
947;DHT22;460;48.734;9.152;2023-06-26T01:05:01;20.50;57.20
947;DHT22;460;48.734;9.152;2023-06-26T01:07:32;20.50;57.20
947;DHT22;460;48.734;9.152;2023-06-26T01:10:02;20.50;57.20
947;DHT22;460;48.734;9.152;2023-06-26T01:12:29;20.50;57.50
947;DHT22;460;48.734;9.152;2023-06-26T01:14:57;20.40;57.10
947;DHT22;460;48.734;9.152;2023-06-26T01:17:27;20.40;57.20
947;DHT22;460;48.734;9.152;2023-06-26T01:19:58;20.50;57.40
947;DHT22;460;48.734;9.152;2023-06-26T01:22:31;20.30;57.50
947;DHT22;460;48.734;9.152;2023-06-26T01:25:18;20.30;57.70
947;DHT22;460;48.734;9.152;2023-06-26T01:27:50;20.40;57.60
947;DHT22;460;48.734;9.152;2023-06-26T01:30:20;20.30;57.50
947;DHT22;460;48.734;9.152;2023-06-26T01:32:48;20.40;57.40
947;DHT22;460;48.734;9.152;2023-06-26T01:35:16;20.40;57.50
947;DHT22;460;48.734;9.152;2023-06-26T01:37:43;20.40;57.60
947;DHT22;460;48.734;9.152;2023-06-26T01:40:11;20.30;58.60
947;DHT22;460;48.734;9.152;2023-06-26T01:42:39;20.30;57.80
947;DHT22;460;48.734;9.152;2023-06-26T01:45:14;20.30;58.40
947;DHT22;460;48.734;9.152;2023-06-26T01:47:49;20.20;58.30
947;DHT22;460;48.734;9.152;2023-06-26T01:50:22;20.20;58.80
947;DHT22;460;48.734;9.152;2023-06-26T01:53:00;20.10;59.30
947;DHT22;460;48.734;9.152;2023-06-26T01:55:32;19.90;60.10
947;DHT22;460;48.734;9.152;2023-06-26T01:58:02;19.80;60.30
947;DHT22;460;48.734;9.152;2023-06-26T02:00:32;19.70;60.50
947;DHT22;460;48.734;9.152;2023-06-26T02:03:01;19.70;61.20
947;DHT22;460;48.734;9.152;2023-06-26T02:05:29;19.60;61.10
947;DHT22;460;48.734;9.152;2023-06-26T02:07:56;19.50;61.50
947;DHT22;460;48.734;9.152;2023-06-26T02:10:23;19.40;61.70
947;DHT22;460;48.734;9.152;2023-06-26T02:12:50;19.40;61.10
947;DHT22;460;48.734;9.152;2023-06-26T02:15:17;19.40;61.80
947;DHT22;460;48.734;9.152;2023-06-26T02:17:45;19.30;62.20
947;DHT22;460;48.734;9.152;2023-06-26T02:20:14;19.30;62.50
947;DHT22;460;48.734;9.152;2023-06-26T02:22:41;19.20;61.90
947;DHT22;460;48.734;9.152;2023-06-26T02:25:08;19.20;63.30
947;DHT22;460;48.734;9.152;2023-06-26T02:27:36;19.10;63.20
947;DHT22;460;48.734;9.152;2023-06-26T02:30:04;19.00;63.40
947;DHT22;460;48.734;9.152;2023-06-26T02:32:32;19.00;63.40
947;DHT22;460;48.734;9.152;2023-06-26T02:35:03;19.00;62.70
947;DHT22;460;48.734;9.152;2023-06-26T02:37:30;18.90;63.70
947;DHT22;460;48.734;9.152;2023-06-26T02:39:58;18.90;63.80
947;DHT22;460;48.734;9.152;2023-06-26T02:42:25;18.80;63.60
947;DHT22;460;48.734;9.152;2023-06-26T02:44:52;18.70;63.90
947;DHT22;460;48.734;9.152;2023-06-26T02:47:18;18.70;64.10
947;DHT22;460;48.734;9.152;2023-06-26T02:49:46;18.70;64.40
947;DHT22;460;48.734;9.152;2023-06-26T02:52:14;18.70;65.30
947;DHT22;460;48.734;9.152;2023-06-26T02:54:42;18.70;66.20
947;DHT22;460;48.734;9.152;2023-06-26T02:57:10;18.60;66.10
947;DHT22;460;48.734;9.152;2023-06-26T02:59:41;18.50;66.60
947;DHT22;460;48.734;9.152;2023-06-26T03:02:09;18.50;66.60
947;DHT22;460;48.734;9.152;2023-06-26T03:04:37;18.50;66.60
947;DHT22;460;48.734;9.152;2023-06-26T03:07:04;18.50;66.30
947;DHT22;460;48.734;9.152;2023-06-26T03:09:33;18.40;66.10
947;DHT22;460;48.734;9.152;2023-06-26T03:12:00;18.40;66.30
947;DHT22;460;48.734;9.152;2023-06-26T03:14:27;18.40;66.80
947;DHT22;460;48.734;9.152;2023-06-26T03:16:54;18.40;66.50
947;DHT22;460;48.734;9.152;2023-06-26T03:19:23;18.30;67.30
947;DHT22;460;48.734;9.152;2023-06-26T03:21:50;18.30;67.90
947;DHT22;460;48.734;9.152;2023-06-26T03:24:17;18.30;67.30
947;DHT22;460;48.734;9.152;2023-06-26T03:26:46;18.30;68.00
947;DHT22;460;48.734;9.152;2023-06-26T03:29:13;18.30;68.30
947;DHT22;460;48.734;9.152;2023-06-26T03:31:40;18.30;67.60
947;DHT22;460;48.734;9.152;2023-06-26T03:34:07;18.30;68.30
947;DHT22;460;48.734;9.152;2023-06-26T03:36:34;18.20;68.70
947;DHT22;460;48.734;9.152;2023-06-26T03:39:01;18.30;68.40
947;DHT22;460;48.734;9.152;2023-06-26T03:41:29;18.30;68.40
947;DHT22;460;48.734;9.152;2023-06-26T03:43:57;18.30;68.50
947;DHT22;460;48.734;9.152;2023-06-26T03:46:26;18.30;68.90
947;DHT22;460;48.734;9.152;2023-06-26T03:48:52;18.30;68.60
947;DHT22;460;48.734;9.152;2023-06-26T03:51:19;18.30;68.90
947;DHT22;460;48.734;9.152;2023-06-26T03:53:46;18.20;69.20
947;DHT22;460;48.734;9.152;2023-06-26T03:56:13;18.30;69.30
947;DHT22;460;48.734;9.152;2023-06-26T03:58:40;18.30;69.40
947;DHT22;460;48.734;9.152;2023-06-26T04:01:08;18.30;69.20
947;DHT22;460;48.734;9.152;2023-06-26T04:03:35;18.40;70.00
947;DHT22;460;48.734;9.152;2023-06-26T04:06:02;18.40;70.30
947;DHT22;460;48.734;9.152;2023-06-26T04:08:28;18.40;70.10
947;DHT22;460;48.734;9.152;2023-06-26T04:10:55;18.40;69.90
947;DHT22;460;48.734;9.152;2023-06-26T04:13:26;18.50;69.80
947;DHT22;460;48.734;9.152;2023-06-26T04:15:53;18.60;70.90
947;DHT22;460;48.734;9.152;2023-06-26T04:18:21;18.60;72.10
947;DHT22;460;48.734;9.152;2023-06-26T04:21:05;18.60;71.40
947;DHT22;460;48.734;9.152;2023-06-26T04:23:33;18.80;71.30
947;DHT22;460;48.734;9.152;2023-06-26T04:26:00;18.80;72.50
947;DHT22;460;48.734;9.152;2023-06-26T04:28:28;18.80;72.60
947;DHT22;460;48.734;9.152;2023-06-26T04:30:54;18.90;72.20
947;DHT22;460;48.734;9.152;2023-06-26T04:33:22;19.00;72.80
947;DHT22;460;48.734;9.152;2023-06-26T04:35:49;19.00;72.00
947;DHT22;460;48.734;9.152;2023-06-26T04:38:16;19.10;73.50
947;DHT22;460;48.734;9.152;2023-06-26T04:40:43;19.30;73.70
947;DHT22;460;48.734;9.152;2023-06-26T04:43:10;19.30;72.90
947;DHT22;460;48.734;9.152;2023-06-26T04:45:37;19.60;71.90
947;DHT22;460;48.734;9.152;2023-06-26T04:48:04;19.70;71.50
947;DHT22;460;48.734;9.152;2023-06-26T04:50:33;19.80;71.70
947;DHT22;460;48.734;9.152;2023-06-26T04:53:01;19.90;71.60
947;DHT22;460;48.734;9.152;2023-06-26T04:55:27;20.00;71.10
947;DHT22;460;48.734;9.152;2023-06-26T04:57:54;20.00;69.70
947;DHT22;460;48.734;9.152;2023-06-26T05:00:21;20.00;69.80
947;DHT22;460;48.734;9.152;2023-06-26T05:02:50;20.10;69.10
947;DHT22;460;48.734;9.152;2023-06-26T05:05:24;20.10;69.10
947;DHT22;460;48.734;9.152;2023-06-26T05:07:54;20.20;68.40
947;DHT22;460;48.734;9.152;2023-06-26T05:10:21;20.30;67.90
947;DHT22;460;48.734;9.152;2023-06-26T05:12:48;20.40;67.90
947;DHT22;460;48.734;9.152;2023-06-26T05:15:15;20.50;66.60
947;DHT22;460;48.734;9.152;2023-06-26T05:17:42;20.50;66.90
947;DHT22;460;48.734;9.152;2023-06-26T05:20:09;20.70;65.80
947;DHT22;460;48.734;9.152;2023-06-26T05:22:37;20.70;65.80
947;DHT22;460;48.734;9.152;2023-06-26T05:25:08;20.80;66.60
947;DHT22;460;48.734;9.152;2023-06-26T05:27:36;20.90;65.90
947;DHT22;460;48.734;9.152;2023-06-26T05:30:04;20.90;65.60
947;DHT22;460;48.734;9.152;2023-06-26T05:32:30;21.00;66.00
947;DHT22;460;48.734;9.152;2023-06-26T05:35:02;21.00;65.40
947;DHT22;460;48.734;9.152;2023-06-26T05:37:29;21.00;65.00
947;DHT22;460;48.734;9.152;2023-06-26T05:39:58;21.10;66.70
947;DHT22;460;48.734;9.152;2023-06-26T05:42:26;21.20;65.40
947;DHT22;460;48.734;9.152;2023-06-26T05:44:53;21.30;65.10
947;DHT22;460;48.734;9.152;2023-06-26T05:47:20;21.40;64.20
947;DHT22;460;48.734;9.152;2023-06-26T05:49:47;21.50;63.90
947;DHT22;460;48.734;9.152;2023-06-26T05:52:14;21.60;64.60
947;DHT22;460;48.734;9.152;2023-06-26T05:54:42;21.70;64.00
947;DHT22;460;48.734;9.152;2023-06-26T05:57:09;21.70;64.50
947;DHT22;460;48.734;9.152;2023-06-26T05:59:39;21.80;65.20
947;DHT22;460;48.734;9.152;2023-06-26T06:02:06;21.90;63.70
947;DHT22;460;48.734;9.152;2023-06-26T06:04:33;21.90;63.70
947;DHT22;460;48.734;9.152;2023-06-26T06:07:00;22.10;62.90
947;DHT22;460;48.734;9.152;2023-06-26T06:09:27;22.30;63.40
947;DHT22;460;48.734;9.152;2023-06-26T06:11:54;22.50;62.80
947;DHT22;460;48.734;9.152;2023-06-26T06:14:20;22.60;62.20
947;DHT22;460;48.734;9.152;2023-06-26T06:16:49;22.70;61.60
947;DHT22;460;48.734;9.152;2023-06-26T06:19:15;22.80;61.40
947;DHT22;460;48.734;9.152;2023-06-26T06:21:42;23.00;60.40
947;DHT22;460;48.734;9.152;2023-06-26T06:24:09;23.10;60.20
947;DHT22;460;48.734;9.152;2023-06-26T06:26:36;23.20;59.90
947;DHT22;460;48.734;9.152;2023-06-26T06:29:03;23.20;59.90
947;DHT22;460;48.734;9.152;2023-06-26T06:31:29;23.30;60.00
947;DHT22;460;48.734;9.152;2023-06-26T06:33:58;23.40;59.60
947;DHT22;460;48.734;9.152;2023-06-26T06:36:24;23.60;59.50
947;DHT22;460;48.734;9.152;2023-06-26T06:38:51;23.70;59.30
947;DHT22;460;48.734;9.152;2023-06-26T06:43:45;23.80;59.70
947;DHT22;460;48.734;9.152;2023-06-26T06:46:12;23.90;59.30
947;DHT22;460;48.734;9.152;2023-06-26T06:48:38;24.00;58.70
947;DHT22;460;48.734;9.152;2023-06-26T06:51:06;24.10;58.70
947;DHT22;460;48.734;9.152;2023-06-26T06:53:33;24.20;59.20
947;DHT22;460;48.734;9.152;2023-06-26T06:56:00;24.20;59.10
947;DHT22;460;48.734;9.152;2023-06-26T06:58:27;24.40;58.70
947;DHT22;460;48.734;9.152;2023-06-26T07:00:54;24.40;57.50
947;DHT22;460;48.734;9.152;2023-06-26T07:03:21;24.60;57.70
947;DHT22;460;48.734;9.152;2023-06-26T07:05:48;24.70;57.80
947;DHT22;460;48.734;9.152;2023-06-26T07:08:16;24.80;56.80
947;DHT22;460;48.734;9.152;2023-06-26T07:10:43;24.90;57.20
947;DHT22;460;48.734;9.152;2023-06-26T07:13:09;25.00;57.80
947;DHT22;460;48.734;9.152;2023-06-26T07:15:36;25.20;56.40
947;DHT22;460;48.734;9.152;2023-06-26T07:18:03;25.20;56.30
947;DHT22;460;48.734;9.152;2023-06-26T07:20:30;25.40;56.30
947;DHT22;460;48.734;9.152;2023-06-26T07:22:57;25.50;55.90
947;DHT22;460;48.734;9.152;2023-06-26T07:25:25;25.60;55.60
947;DHT22;460;48.734;9.152;2023-06-26T07:27:51;25.60;55.50
947;DHT22;460;48.734;9.152;2023-06-26T07:30:18;25.60;55.70
947;DHT22;460;48.734;9.152;2023-06-26T07:32:45;25.80;55.90
947;DHT22;460;48.734;9.152;2023-06-26T07:35:12;25.90;55.30
947;DHT22;460;48.734;9.152;2023-06-26T07:37:39;26.00;55.80
947;DHT22;460;48.734;9.152;2023-06-26T07:40:07;26.10;55.70
947;DHT22;460;48.734;9.152;2023-06-26T07:42:36;26.20;56.10
947;DHT22;460;48.734;9.152;2023-06-26T07:45:03;26.40;56.40
947;DHT22;460;48.734;9.152;2023-06-26T07:47:37;26.50;56.40
947;DHT22;460;48.734;9.152;2023-06-26T07:50:05;26.70;55.50
947;DHT22;460;48.734;9.152;2023-06-26T07:52:32;26.80;55.80
947;DHT22;460;48.734;9.152;2023-06-26T07:54:58;26.90;54.60
947;DHT22;460;48.734;9.152;2023-06-26T07:57:25;27.00;53.70
947;DHT22;460;48.734;9.152;2023-06-26T07:59:53;27.10;54.40
947;DHT22;460;48.734;9.152;2023-06-26T08:02:21;27.20;53.40
947;DHT22;460;48.734;9.152;2023-06-26T08:04:48;27.30;53.50
947;DHT22;460;48.734;9.152;2023-06-26T08:07:14;27.30;54.00
947;DHT22;460;48.734;9.152;2023-06-26T08:09:41;27.30;53.10
947;DHT22;460;48.734;9.152;2023-06-26T08:12:08;27.50;52.70
947;DHT22;460;48.734;9.152;2023-06-26T08:14:35;27.70;52.50
947;DHT22;460;48.734;9.152;2023-06-26T08:17:04;27.80;52.10
947;DHT22;460;48.734;9.152;2023-06-26T08:19:30;27.90;50.80
947;DHT22;460;48.734;9.152;2023-06-26T08:21:57;28.00;51.40
947;DHT22;460;48.734;9.152;2023-06-26T08:24:24;28.10;51.90
947;DHT22;460;48.734;9.152;2023-06-26T08:26:51;28.20;51.30
947;DHT22;460;48.734;9.152;2023-06-26T08:29:18;28.20;51.20
947;DHT22;460;48.734;9.152;2023-06-26T08:31:44;28.30;50.70
947;DHT22;460;48.734;9.152;2023-06-26T08:34:13;28.40;50.00
947;DHT22;460;48.734;9.152;2023-06-26T08:36:39;28.30;50.40
947;DHT22;460;48.734;9.152;2023-06-26T08:39:06;28.50;50.50
947;DHT22;460;48.734;9.152;2023-06-26T08:41:34;28.40;50.40
947;DHT22;460;48.734;9.152;2023-06-26T08:44:01;28.50;50.50
947;DHT22;460;48.734;9.152;2023-06-26T08:46:28;28.60;50.60
947;DHT22;460;48.734;9.152;2023-06-26T08:48:56;28.80;50.50
947;DHT22;460;48.734;9.152;2023-06-26T08:51:28;28.90;49.50
947;DHT22;460;48.734;9.152;2023-06-26T08:53:57;29.10;50.10
947;DHT22;460;48.734;9.152;2023-06-26T08:56:25;29.10;49.60
947;DHT22;460;48.734;9.152;2023-06-26T08:58:54;29.30;49.70
947;DHT22;460;48.734;9.152;2023-06-26T09:01:21;29.30;48.30
947;DHT22;460;48.734;9.152;2023-06-26T09:03:50;29.30;49.10
947;DHT22;460;48.734;9.152;2023-06-26T09:06:17;29.30;48.40
947;DHT22;460;48.734;9.152;2023-06-26T09:08:46;29.40;48.50
947;DHT22;460;48.734;9.152;2023-06-26T09:11:12;29.60;48.90
947;DHT22;460;48.734;9.152;2023-06-26T09:13:40;29.70;48.40
947;DHT22;460;48.734;9.152;2023-06-26T09:16:09;29.80;48.20
947;DHT22;460;48.734;9.152;2023-06-26T09:18:36;29.90;47.40
947;DHT22;460;48.734;9.152;2023-06-26T09:21:07;29.50;47.90
947;DHT22;460;48.734;9.152;2023-06-26T09:23:34;29.30;47.70
947;DHT22;460;48.734;9.152;2023-06-26T09:26:04;29.40;48.20
947;DHT22;460;48.734;9.152;2023-06-26T09:28:32;29.40;47.50
947;DHT22;460;48.734;9.152;2023-06-26T09:31:03;29.60;47.00
947;DHT22;460;48.734;9.152;2023-06-26T09:33:33;29.50;45.70
947;DHT22;460;48.734;9.152;2023-06-26T09:36:01;29.80;46.80
947;DHT22;460;48.734;9.152;2023-06-26T09:38:28;30.10;47.00
947;DHT22;460;48.734;9.152;2023-06-26T09:40:55;30.10;46.70
947;DHT22;460;48.734;9.152;2023-06-26T09:43:23;30.10;46.90
947;DHT22;460;48.734;9.152;2023-06-26T09:45:50;30.10;46.30
947;DHT22;460;48.734;9.152;2023-06-26T09:48:17;30.30;46.40
947;DHT22;460;48.734;9.152;2023-06-26T09:50:43;30.50;46.80
947;DHT22;460;48.734;9.152;2023-06-26T09:53:12;30.40;45.70
947;DHT22;460;48.734;9.152;2023-06-26T09:55:40;30.30;45.30
947;DHT22;460;48.734;9.152;2023-06-26T09:58:10;30.20;46.20
947;DHT22;460;48.734;9.152;2023-06-26T10:00:41;30.20;46.30
947;DHT22;460;48.734;9.152;2023-06-26T10:03:09;30.10;45.80
947;DHT22;460;48.734;9.152;2023-06-26T10:05:37;30.20;47.50
947;DHT22;460;48.734;9.152;2023-06-26T10:08:04;30.10;45.80
947;DHT22;460;48.734;9.152;2023-06-26T10:10:33;29.90;46.20
947;DHT22;460;48.734;9.152;2023-06-26T10:13:09;29.90;46.80
947;DHT22;460;48.734;9.152;2023-06-26T10:15:38;30.00;47.10
947;DHT22;460;48.734;9.152;2023-06-26T10:18:08;30.30;47.50
947;DHT22;460;48.734;9.152;2023-06-26T10:20:35;30.00;47.20
947;DHT22;460;48.734;9.152;2023-06-26T10:23:05;29.90;46.80
947;DHT22;460;48.734;9.152;2023-06-26T10:25:37;29.70;47.20
947;DHT22;460;48.734;9.152;2023-06-26T10:28:08;29.90;48.00
947;DHT22;460;48.734;9.152;2023-06-26T10:30:36;30.20;47.90
947;DHT22;460;48.734;9.152;2023-06-26T10:33:03;30.10;48.20
947;DHT22;460;48.734;9.152;2023-06-26T10:35:32;29.70;48.00
947;DHT22;460;48.734;9.152;2023-06-26T10:38:03;29.20;48.40
947;DHT22;460;48.734;9.152;2023-06-26T10:40:41;29.10;49.60
947;DHT22;460;48.734;9.152;2023-06-26T10:43:09;28.80;50.20
947;DHT22;460;48.734;9.152;2023-06-26T10:45:43;28.50;50.80
947;DHT22;460;48.734;9.152;2023-06-26T10:48:13;28.50;51.30
947;DHT22;460;48.734;9.152;2023-06-26T10:50:42;28.70;51.60
947;DHT22;460;48.734;9.152;2023-06-26T10:53:14;29.10;51.20
947;DHT22;460;48.734;9.152;2023-06-26T10:55:50;29.30;50.80
947;DHT22;460;48.734;9.152;2023-06-26T10:58:39;30.00;52.00
947;DHT22;460;48.734;9.152;2023-06-26T11:01:23;30.20;50.50
947;DHT22;460;48.734;9.152;2023-06-26T11:04:01;30.60;50.70
947;DHT22;460;48.734;9.152;2023-06-26T11:06:32;30.40;49.50
947;DHT22;460;48.734;9.152;2023-06-26T11:09:05;30.10;49.70
947;DHT22;460;48.734;9.152;2023-06-26T11:11:55;30.10;49.80
947;DHT22;460;48.734;9.152;2023-06-26T11:14:25;30.60;51.00
947;DHT22;460;48.734;9.152;2023-06-26T11:16:52;30.80;49.70
947;DHT22;460;48.734;9.152;2023-06-26T11:19:21;31.20;49.00
947;DHT22;460;48.734;9.152;2023-06-26T11:21:50;31.50;49.00
947;DHT22;460;48.734;9.152;2023-06-26T11:24:18;31.90;49.30
947;DHT22;460;48.734;9.152;2023-06-26T11:26:45;31.90;48.90
947;DHT22;460;48.734;9.152;2023-06-26T11:29:12;32.30;48.10
947;DHT22;460;48.734;9.152;2023-06-26T11:31:41;31.90;47.40
947;DHT22;460;48.734;9.152;2023-06-26T11:34:10;31.90;47.00
947;DHT22;460;48.734;9.152;2023-06-26T11:36:38;32.20;48.00
947;DHT22;460;48.734;9.152;2023-06-26T11:39:09;32.70;46.30
947;DHT22;460;48.734;9.152;2023-06-26T11:41:36;33.00;46.30
947;DHT22;460;48.734;9.152;2023-06-26T11:44:05;33.40;46.20
947;DHT22;460;48.734;9.152;2023-06-26T11:46:33;33.40;46.80
947;DHT22;460;48.734;9.152;2023-06-26T11:49:02;33.10;47.30
947;DHT22;460;48.734;9.152;2023-06-26T11:51:29;33.40;48.00
947;DHT22;460;48.734;9.152;2023-06-26T11:53:56;33.80;46.30
947;DHT22;460;48.734;9.152;2023-06-26T11:56:25;34.10;47.30
947;DHT22;460;48.734;9.152;2023-06-26T11:58:59;34.70;45.90
947;DHT22;460;48.734;9.152;2023-06-26T12:01:27;34.80;46.20
947;DHT22;460;48.734;9.152;2023-06-26T12:03:59;35.10;45.50
947;DHT22;460;48.734;9.152;2023-06-26T12:06:27;35.50;45.40
947;DHT22;460;48.734;9.152;2023-06-26T12:08:54;35.50;45.00
947;DHT22;460;48.734;9.152;2023-06-26T12:11:23;35.00;45.00
947;DHT22;460;48.734;9.152;2023-06-26T12:13:51;34.90;46.10
947;DHT22;460;48.734;9.152;2023-06-26T12:16:18;35.40;45.30
947;DHT22;460;48.734;9.152;2023-06-26T12:18:46;36.20;43.30
947;DHT22;460;48.734;9.152;2023-06-26T12:21:28;35.90;44.10
947;DHT22;460;48.734;9.152;2023-06-26T12:23:58;36.70;43.90
947;DHT22;460;48.734;9.152;2023-06-26T12:26:26;37.30;42.70
947;DHT22;460;48.734;9.152;2023-06-26T12:29:01;36.80;42.60
947;DHT22;460;48.734;9.152;2023-06-26T12:31:28;36.40;43.40
947;DHT22;460;48.734;9.152;2023-06-26T12:33:55;36.30;44.50
947;DHT22;460;48.734;9.152;2023-06-26T12:36:22;37.20;43.40
947;DHT22;460;48.734;9.152;2023-06-26T12:38:49;36.70;42.80
947;DHT22;460;48.734;9.152;2023-06-26T12:41:16;35.80;44.60
947;DHT22;460;48.734;9.152;2023-06-26T12:43:43;35.90;44.80
947;DHT22;460;48.734;9.152;2023-06-26T12:46:12;36.80;44.70
947;DHT22;460;48.734;9.152;2023-06-26T12:48:39;36.70;44.10
947;DHT22;460;48.734;9.152;2023-06-26T12:51:12;37.60;43.20
947;DHT22;460;48.734;9.152;2023-06-26T12:53:39;37.80;42.20
947;DHT22;460;48.734;9.152;2023-06-26T12:56:06;37.40;43.00
947;DHT22;460;48.734;9.152;2023-06-26T12:58:33;37.80;43.50
947;DHT22;460;48.734;9.152;2023-06-26T13:01:02;37.50;42.90
947;DHT22;460;48.734;9.152;2023-06-26T13:03:31;37.80;41.60
947;DHT22;460;48.734;9.152;2023-06-26T13:05:58;38.10;41.90
947;DHT22;460;48.734;9.152;2023-06-26T13:08:25;38.70;41.60
947;DHT22;460;48.734;9.152;2023-06-26T13:10:51;39.20;41.50
947;DHT22;460;48.734;9.152;2023-06-26T13:13:18;39.10;40.80
947;DHT22;460;48.734;9.152;2023-06-26T13:15:45;39.10;40.40
947;DHT22;460;48.734;9.152;2023-06-26T13:18:12;38.00;39.90
947;DHT22;460;48.734;9.152;2023-06-26T13:20:40;37.80;42.00
947;DHT22;460;48.734;9.152;2023-06-26T13:23:07;37.70;41.20
947;DHT22;460;48.734;9.152;2023-06-26T13:25:34;37.60;42.20
947;DHT22;460;48.734;9.152;2023-06-26T13:28:00;38.50;41.70
947;DHT22;460;48.734;9.152;2023-06-26T13:30:27;37.80;40.20
947;DHT22;460;48.734;9.152;2023-06-26T13:32:55;36.90;41.50
947;DHT22;460;48.734;9.152;2023-06-26T13:35:21;37.20;41.20
947;DHT22;460;48.734;9.152;2023-06-26T13:37:50;37.00;40.90
947;DHT22;460;48.734;9.152;2023-06-26T13:40:16;36.90;40.60
947;DHT22;460;48.734;9.152;2023-06-26T13:42:43;36.70;41.70
947;DHT22;460;48.734;9.152;2023-06-26T13:45:11;37.30;41.90
947;DHT22;460;48.734;9.152;2023-06-26T13:47:38;36.90;41.30
947;DHT22;460;48.734;9.152;2023-06-26T13:50:07;37.30;40.80
947;DHT22;460;48.734;9.152;2023-06-26T13:52:34;37.50;41.10
947;DHT22;460;48.734;9.152;2023-06-26T13:55:03;37.80;40.50
947;DHT22;460;48.734;9.152;2023-06-26T13:57:30;37.30;39.50
947;DHT22;460;48.734;9.152;2023-06-26T13:59:57;35.70;40.90
947;DHT22;460;48.734;9.152;2023-06-26T14:02:24;36.20;40.40
947;DHT22;460;48.734;9.152;2023-06-26T14:04:51;36.80;40.10
947;DHT22;460;48.734;9.152;2023-06-26T14:07:18;36.90;39.70
947;DHT22;460;48.734;9.152;2023-06-26T14:09:45;37.00;39.10
947;DHT22;460;48.734;9.152;2023-06-26T14:12:13;36.00;38.90
947;DHT22;460;48.734;9.152;2023-06-26T14:14:40;35.50;39.90
947;DHT22;460;48.734;9.152;2023-06-26T14:17:07;36.20;40.20
947;DHT22;460;48.734;9.152;2023-06-26T14:19:34;36.60;39.20
947;DHT22;460;48.734;9.152;2023-06-26T14:22:01;36.80;38.00
947;DHT22;460;48.734;9.152;2023-06-26T14:24:28;36.00;38.30
947;DHT22;460;48.734;9.152;2023-06-26T14:26:55;35.70;38.10
947;DHT22;460;48.734;9.152;2023-06-26T14:29:23;35.80;38.70
947;DHT22;460;48.734;9.152;2023-06-26T14:31:50;35.40;39.50
947;DHT22;460;48.734;9.152;2023-06-26T14:34:17;35.50;38.80
947;DHT22;460;48.734;9.152;2023-06-26T14:36:43;35.00;39.80
947;DHT22;460;48.734;9.152;2023-06-26T14:39:10;35.20;39.70
947;DHT22;460;48.734;9.152;2023-06-26T14:41:37;35.10;38.70
947;DHT22;460;48.734;9.152;2023-06-26T14:44:04;34.30;39.50
947;DHT22;460;48.734;9.152;2023-06-26T14:46:35;33.90;40.60
947;DHT22;460;48.734;9.152;2023-06-26T14:49:02;33.60;41.00
947;DHT22;460;48.734;9.152;2023-06-26T14:51:29;34.30;41.30
947;DHT22;460;48.734;9.152;2023-06-26T14:53:56;34.40;39.80
947;DHT22;460;48.734;9.152;2023-06-26T14:56:23;34.00;40.20
947;DHT22;460;48.734;9.152;2023-06-26T14:58:49;34.10;40.40
947;DHT22;460;48.734;9.152;2023-06-26T15:01:17;33.80;40.20
947;DHT22;460;48.734;9.152;2023-06-26T15:03:46;33.90;41.70
947;DHT22;460;48.734;9.152;2023-06-26T15:06:13;33.50;41.20
947;DHT22;460;48.734;9.152;2023-06-26T15:08:40;33.20;41.50
947;DHT22;460;48.734;9.152;2023-06-26T15:11:07;33.30;41.90
947;DHT22;460;48.734;9.152;2023-06-26T15:13:33;32.60;42.30
947;DHT22;460;48.734;9.152;2023-06-26T15:16:01;32.40;42.80
947;DHT22;460;48.734;9.152;2023-06-26T15:18:28;31.80;43.50
947;DHT22;460;48.734;9.152;2023-06-26T15:20:57;31.50;43.70
947;DHT22;460;48.734;9.152;2023-06-26T15:23:23;31.50;43.20
947;DHT22;460;48.734;9.152;2023-06-26T15:25:52;30.80;43.70
947;DHT22;460;48.734;9.152;2023-06-26T15:28:19;30.50;44.30
947;DHT22;460;48.734;9.152;2023-06-26T15:30:46;30.40;44.50
947;DHT22;460;48.734;9.152;2023-06-26T15:33:13;30.20;45.20
947;DHT22;460;48.734;9.152;2023-06-26T15:35:40;29.90;45.20
947;DHT22;460;48.734;9.152;2023-06-26T15:38:08;29.80;45.10
947;DHT22;460;48.734;9.152;2023-06-26T15:40:35;29.80;45.70
947;DHT22;460;48.734;9.152;2023-06-26T15:43:02;29.50;45.50
947;DHT22;460;48.734;9.152;2023-06-26T15:45:29;29.40;45.80
947;DHT22;460;48.734;9.152;2023-06-26T15:47:56;29.00;46.30
947;DHT22;460;48.734;9.152;2023-06-26T15:50:23;28.70;46.60
947;DHT22;460;48.734;9.152;2023-06-26T15:52:50;28.90;47.40
947;DHT22;460;48.734;9.152;2023-06-26T15:55:32;28.90;47.00
947;DHT22;460;48.734;9.152;2023-06-26T15:57:59;28.70;46.30
947;DHT22;460;48.734;9.152;2023-06-26T16:00:26;28.20;46.60
947;DHT22;460;48.734;9.152;2023-06-26T16:02:53;28.00;47.40
947;DHT22;460;48.734;9.152;2023-06-26T16:05:19;28.00;47.40
947;DHT22;460;48.734;9.152;2023-06-26T16:07:46;27.90;47.40
947;DHT22;460;48.734;9.152;2023-06-26T16:10:13;27.50;47.70
947;DHT22;460;48.734;9.152;2023-06-26T16:12:41;27.60;48.70
947;DHT22;460;48.734;9.152;2023-06-26T16:15:08;27.70;48.70
947;DHT22;460;48.734;9.152;2023-06-26T16:17:35;27.70;48.10
947;DHT22;460;48.734;9.152;2023-06-26T16:20:02;27.30;48.20
947;DHT22;460;48.734;9.152;2023-06-26T16:22:29;27.20;48.90
947;DHT22;460;48.734;9.152;2023-06-26T16:24:56;27.20;49.10
947;DHT22;460;48.734;9.152;2023-06-26T16:27:23;27.30;49.00
947;DHT22;460;48.734;9.152;2023-06-26T16:29:51;27.30;48.40
947;DHT22;460;48.734;9.152;2023-06-26T16:32:18;27.20;48.30
947;DHT22;460;48.734;9.152;2023-06-26T16:34:45;27.20;48.30
947;DHT22;460;48.734;9.152;2023-06-26T16:37:11;27.00;48.20
947;DHT22;460;48.734;9.152;2023-06-26T16:39:38;26.70;48.30
947;DHT22;460;48.734;9.152;2023-06-26T16:42:06;26.90;48.90